sensor_id;sensor_type;location;lat;lon;timestamp;temperature;humidity
262;DHT22;114;48.260;10.988;2022-12-18T00:03:51;-4.50;69.10
262;DHT22;114;48.260;10.988;2022-12-18T00:06:17;-4.70;69.60
262;DHT22;114;48.260;10.988;2022-12-18T00:08:44;-4.20;70.80
262;DHT22;114;48.260;10.988;2022-12-18T00:11:18;-4.40;68.50
262;DHT22;114;48.260;10.988;2022-12-18T00:13:44;-4.20;67.60
262;DHT22;114;48.260;10.988;2022-12-18T00:16:13;-4.40;67.60
262;DHT22;114;48.260;10.988;2022-12-18T00:18:39;-4.60;67.40
262;DHT22;114;48.260;10.988;2022-12-18T00:21:08;-4.60;68.60
262;DHT22;114;48.260;10.988;2022-12-18T00:23:35;-4.20;68.80
262;DHT22;114;48.260;10.988;2022-12-18T00:26:08;-4.20;68.10
262;DHT22;114;48.260;10.988;2022-12-18T00:28:35;-4.20;67.10
262;DHT22;114;48.260;10.988;2022-12-18T00:31:08;-4.30;65.50
262;DHT22;114;48.260;10.988;2022-12-18T00:33:34;-4.30;66.50
262;DHT22;114;48.260;10.988;2022-12-18T00:36:02;-4.20;67.30
262;DHT22;114;48.260;10.988;2022-12-18T00:38:28;-4.20;66.60
262;DHT22;114;48.260;10.988;2022-12-18T00:40:54;-4.40;66.90
262;DHT22;114;48.260;10.988;2022-12-18T00:43:20;-4.10;66.30
262;DHT22;114;48.260;10.988;2022-12-18T00:45:45;-4.20;65.50
262;DHT22;114;48.260;10.988;2022-12-18T00:48:11;-4.60;65.50
262;DHT22;114;48.260;10.988;2022-12-18T00:50:37;-4.10;64.00
262;DHT22;114;48.260;10.988;2022-12-18T00:53:03;-4.10;65.50
262;DHT22;114;48.260;10.988;2022-12-18T00:55:29;-4.60;63.90
262;DHT22;114;48.260;10.988;2022-12-18T00:57:55;-4.00;66.50
262;DHT22;114;48.260;10.988;2022-12-18T01:00:21;-4.50;65.70
262;DHT22;114;48.260;10.988;2022-12-18T01:02:47;-4.20;65.70
262;DHT22;114;48.260;10.988;2022-12-18T01:05:14;-4.40;66.00
262;DHT22;114;48.260;10.988;2022-12-18T01:07:39;-4.30;67.10
262;DHT22;114;48.260;10.988;2022-12-18T01:10:06;-4.80;67.80
262;DHT22;114;48.260;10.988;2022-12-18T01:12:33;-4.40;69.70
262;DHT22;114;48.260;10.988;2022-12-18T01:14:59;-4.40;69.10
262;DHT22;114;48.260;10.988;2022-12-18T01:17:24;-4.60;69.60
262;DHT22;114;48.260;10.988;2022-12-18T01:19:50;-4.50;69.40
262;DHT22;114;48.260;10.988;2022-12-18T01:22:16;-4.40;71.60
262;DHT22;114;48.260;10.988;2022-12-18T01:24:41;-4.40;71.20
262;DHT22;114;48.260;10.988;2022-12-18T01:27:07;-4.40;71.40
262;DHT22;114;48.260;10.988;2022-12-18T01:29:33;-5.00;70.30
262;DHT22;114;48.260;10.988;2022-12-18T01:31:59;-4.50;71.80
262;DHT22;114;48.260;10.988;2022-12-18T01:34:24;-4.60;71.30
262;DHT22;114;48.260;10.988;2022-12-18T01:36:50;-4.60;71.90
262;DHT22;114;48.260;10.988;2022-12-18T01:39:19;-4.70;71.40
262;DHT22;114;48.260;10.988;2022-12-18T01:41:45;-5.10;71.40
262;DHT22;114;48.260;10.988;2022-12-18T01:45:05;-4.80;72.00
262;DHT22;114;48.260;10.988;2022-12-18T01:52:45;-4.70;74.00
262;DHT22;114;48.260;10.988;2022-12-18T01:55:13;-4.70;73.30
262;DHT22;114;48.260;10.988;2022-12-18T01:57:41;-5.30;73.20
262;DHT22;114;48.260;10.988;2022-12-18T02:00:11;-5.20;73.30
262;DHT22;114;48.260;10.988;2022-12-18T02:02:38;-4.80;75.00
262;DHT22;114;48.260;10.988;2022-12-18T02:05:04;-4.80;73.60
262;DHT22;114;48.260;10.988;2022-12-18T02:10:57;-4.70;74.10
262;DHT22;114;48.260;10.988;2022-12-18T02:16:01;-4.80;73.10
262;DHT22;114;48.260;10.988;2022-12-18T02:18:38;-5.30;73.70
262;DHT22;114;48.260;10.988;2022-12-18T02:27:04;-4.90;72.50
262;DHT22;114;48.260;10.988;2022-12-18T02:29:53;-4.90;72.50
262;DHT22;114;48.260;10.988;2022-12-18T02:32:26;-4.90;69.70
262;DHT22;114;48.260;10.988;2022-12-18T02:34:55;-4.90;70.40
262;DHT22;114;48.260;10.988;2022-12-18T02:37:23;-5.00;70.90
262;DHT22;114;48.260;10.988;2022-12-18T02:39:49;-5.00;71.10
262;DHT22;114;48.260;10.988;2022-12-18T02:42:17;-5.30;70.60
262;DHT22;114;48.260;10.988;2022-12-18T02:44:49;-4.90;71.10
262;DHT22;114;48.260;10.988;2022-12-18T02:47:17;-5.40;69.00
262;DHT22;114;48.260;10.988;2022-12-18T02:58:47;-5.10;69.40
262;DHT22;114;48.260;10.988;2022-12-18T03:01:36;-5.20;70.90
262;DHT22;114;48.260;10.988;2022-12-18T03:07:36;-5.00;72.20
262;DHT22;114;48.260;10.988;2022-12-18T03:10:04;-5.10;71.60
262;DHT22;114;48.260;10.988;2022-12-18T03:12:35;-5.20;73.30
262;DHT22;114;48.260;10.988;2022-12-18T03:15:19;-5.00;75.50
262;DHT22;114;48.260;10.988;2022-12-18T03:17:54;-5.30;75.10
262;DHT22;114;48.260;10.988;2022-12-18T03:20:23;-5.10;76.50
262;DHT22;114;48.260;10.988;2022-12-18T03:22:54;-5.20;74.80
262;DHT22;114;48.260;10.988;2022-12-18T03:25:21;-5.20;77.30
262;DHT22;114;48.260;10.988;2022-12-18T03:27:51;-5.10;76.90
262;DHT22;114;48.260;10.988;2022-12-18T03:30:19;-4.90;76.40
262;DHT22;114;48.260;10.988;2022-12-18T03:32:53;-4.90;76.70
262;DHT22;114;48.260;10.988;2022-12-18T03:35:29;-5.10;76.00
262;DHT22;114;48.260;10.988;2022-12-18T03:37:55;-5.10;76.70
262;DHT22;114;48.260;10.988;2022-12-18T03:40:27;-4.90;77.00
262;DHT22;114;48.260;10.988;2022-12-18T03:43:11;-5.50;76.20
262;DHT22;114;48.260;10.988;2022-12-18T03:45:48;-5.00;75.90
262;DHT22;114;48.260;10.988;2022-12-18T03:48:20;-4.80;76.90
262;DHT22;114;48.260;10.988;2022-12-18T03:50:57;-5.20;77.50
262;DHT22;114;48.260;10.988;2022-12-18T03:56:00;-5.20;78.70
262;DHT22;114;48.260;10.988;2022-12-18T03:58:27;-5.40;79.00
262;DHT22;114;48.260;10.988;2022-12-18T04:00:56;-4.90;78.80
262;DHT22;114;48.260;10.988;2022-12-18T04:03:25;-5.20;77.30
262;DHT22;114;48.260;10.988;2022-12-18T04:05:52;-5.60;78.50
262;DHT22;114;48.260;10.988;2022-12-18T04:08:20;-5.10;78.00
262;DHT22;114;48.260;10.988;2022-12-18T04:10:47;-5.30;79.00
262;DHT22;114;48.260;10.988;2022-12-18T04:13:28;-5.10;77.80
262;DHT22;114;48.260;10.988;2022-12-18T04:15:54;-4.70;79.50
262;DHT22;114;48.260;10.988;2022-12-18T04:18:20;-5.00;79.10
262;DHT22;114;48.260;10.988;2022-12-18T04:20:46;-5.40;78.10
262;DHT22;114;48.260;10.988;2022-12-18T04:23:11;-5.50;77.20
262;DHT22;114;48.260;10.988;2022-12-18T04:25:37;-4.90;77.30
262;DHT22;114;48.260;10.988;2022-12-18T04:28:03;-4.90;77.40
262;DHT22;114;48.260;10.988;2022-12-18T04:30:29;-4.90;75.40
262;DHT22;114;48.260;10.988;2022-12-18T04:32:54;-5.30;76.50
262;DHT22;114;48.260;10.988;2022-12-18T04:35:20;-4.70;76.20
262;DHT22;114;48.260;10.988;2022-12-18T04:37:46;-4.80;76.20
262;DHT22;114;48.260;10.988;2022-12-18T04:40:12;-4.70;75.60
262;DHT22;114;48.260;10.988;2022-12-18T04:42:39;-5.00;74.40
262;DHT22;114;48.260;10.988;2022-12-18T04:45:06;-4.60;74.80
262;DHT22;114;48.260;10.988;2022-12-18T04:47:32;-4.80;71.90
262;DHT22;114;48.260;10.988;2022-12-18T04:49:58;-5.30;71.40
262;DHT22;114;48.260;10.988;2022-12-18T04:52:23;-4.90;70.90
262;DHT22;114;48.260;10.988;2022-12-18T04:54:49;-4.80;72.00
262;DHT22;114;48.260;10.988;2022-12-18T04:57:15;-4.80;71.40
262;DHT22;114;48.260;10.988;2022-12-18T04:59:41;-4.80;71.10
262;DHT22;114;48.260;10.988;2022-12-18T05:02:06;-4.60;71.30
262;DHT22;114;48.260;10.988;2022-12-18T05:04:32;-4.70;69.80
262;DHT22;114;48.260;10.988;2022-12-18T05:06:58;-4.80;69.00
262;DHT22;114;48.260;10.988;2022-12-18T05:09:23;-4.70;69.60
262;DHT22;114;48.260;10.988;2022-12-18T05:11:49;-4.80;70.50
262;DHT22;114;48.260;10.988;2022-12-18T05:14:15;-5.20;68.40
262;DHT22;114;48.260;10.988;2022-12-18T05:16:40;-4.60;67.30
262;DHT22;114;48.260;10.988;2022-12-18T05:19:06;-4.70;68.50
262;DHT22;114;48.260;10.988;2022-12-18T05:21:32;-4.80;68.00
262;DHT22;114;48.260;10.988;2022-12-18T05:23:58;-4.60;69.50
262;DHT22;114;48.260;10.988;2022-12-18T05:26:23;-4.80;68.00
262;DHT22;114;48.260;10.988;2022-12-18T05:28:49;-5.30;69.50
262;DHT22;114;48.260;10.988;2022-12-18T05:31:15;-4.90;67.30
262;DHT22;114;48.260;10.988;2022-12-18T05:33:41;-5.00;69.00
262;DHT22;114;48.260;10.988;2022-12-18T05:36:08;-4.90;71.00
262;DHT22;114;48.260;10.988;2022-12-18T05:38:36;-4.90;69.80
262;DHT22;114;48.260;10.988;2022-12-18T05:41:02;-4.80;70.50
262;DHT22;114;48.260;10.988;2022-12-18T05:43:28;-4.80;70.20
262;DHT22;114;48.260;10.988;2022-12-18T05:45:54;-4.90;70.60
262;DHT22;114;48.260;10.988;2022-12-18T05:48:21;-4.80;70.90
262;DHT22;114;48.260;10.988;2022-12-18T05:50:48;-4.90;68.90
262;DHT22;114;48.260;10.988;2022-12-18T05:53:17;-4.40;71.20
262;DHT22;114;48.260;10.988;2022-12-18T05:55:44;-4.90;69.20
262;DHT22;114;48.260;10.988;2022-12-18T05:58:11;-5.30;70.30
262;DHT22;114;48.260;10.988;2022-12-18T06:00:41;-4.90;70.10
262;DHT22;114;48.260;10.988;2022-12-18T06:03:08;-4.90;70.80
262;DHT22;114;48.260;10.988;2022-12-18T06:05:36;-4.90;70.30
262;DHT22;114;48.260;10.988;2022-12-18T06:08:02;-4.90;71.30
262;DHT22;114;48.260;10.988;2022-12-18T06:10:28;-4.70;71.50
262;DHT22;114;48.260;10.988;2022-12-18T06:12:54;-4.90;70.30
262;DHT22;114;48.260;10.988;2022-12-18T06:15:20;-5.00;71.50
262;DHT22;114;48.260;10.988;2022-12-18T06:17:46;-4.80;72.70
262;DHT22;114;48.260;10.988;2022-12-18T06:20:11;-4.90;71.70
262;DHT22;114;48.260;10.988;2022-12-18T06:22:37;-4.80;72.30
262;DHT22;114;48.260;10.988;2022-12-18T06:25:03;-4.90;69.70
262;DHT22;114;48.260;10.988;2022-12-18T06:27:29;-4.90;70.60
262;DHT22;114;48.260;10.988;2022-12-18T06:29:55;-4.90;69.90
262;DHT22;114;48.260;10.988;2022-12-18T06:32:20;-5.00;70.30
262;DHT22;114;48.260;10.988;2022-12-18T06:34:46;-4.90;73.00
262;DHT22;114;48.260;10.988;2022-12-18T06:37:13;-4.90;71.10
262;DHT22;114;48.260;10.988;2022-12-18T06:39:39;-5.50;70.10
262;DHT22;114;48.260;10.988;2022-12-18T06:42:04;-4.80;70.70
262;DHT22;114;48.260;10.988;2022-12-18T06:44:30;-4.80;70.40
262;DHT22;114;48.260;10.988;2022-12-18T06:46:56;-4.90;69.00
262;DHT22;114;48.260;10.988;2022-12-18T06:49:22;-5.50;68.30
262;DHT22;114;48.260;10.988;2022-12-18T06:51:48;-4.80;70.10
262;DHT22;114;48.260;10.988;2022-12-18T06:54:13;-4.90;70.30
262;DHT22;114;48.260;10.988;2022-12-18T06:56:39;-4.80;71.00
262;DHT22;114;48.260;10.988;2022-12-18T06:59:05;-5.30;69.10
262;DHT22;114;48.260;10.988;2022-12-18T07:01:30;-4.80;69.50
262;DHT22;114;48.260;10.988;2022-12-18T07:03:57;-4.60;68.90
262;DHT22;114;48.260;10.988;2022-12-18T07:06:24;-4.80;67.40
262;DHT22;114;48.260;10.988;2022-12-18T07:08:52;-4.90;69.40
262;DHT22;114;48.260;10.988;2022-12-18T07:11:18;-4.80;68.10
262;DHT22;114;48.260;10.988;2022-12-18T07:13:45;-4.80;68.20
262;DHT22;114;48.260;10.988;2022-12-18T07:16:21;-4.90;68.40
262;DHT22;114;48.260;10.988;2022-12-18T07:18:47;-4.80;68.40
262;DHT22;114;48.260;10.988;2022-12-18T07:21:15;-4.60;66.80
262;DHT22;114;48.260;10.988;2022-12-18T07:23:42;-4.70;66.80
262;DHT22;114;48.260;10.988;2022-12-18T07:26:10;-4.80;66.10
262;DHT22;114;48.260;10.988;2022-12-18T07:28:37;-4.80;66.20
262;DHT22;114;48.260;10.988;2022-12-18T07:31:04;-4.70;66.80
262;DHT22;114;48.260;10.988;2022-12-18T07:33:32;-4.70;66.40
262;DHT22;114;48.260;10.988;2022-12-18T07:35:59;-4.70;66.70
262;DHT22;114;48.260;10.988;2022-12-18T07:38:25;-4.60;65.00
262;DHT22;114;48.260;10.988;2022-12-18T07:40:50;-4.80;65.10
262;DHT22;114;48.260;10.988;2022-12-18T07:43:16;-4.60;66.30
262;DHT22;114;48.260;10.988;2022-12-18T07:45:42;-4.90;67.10
262;DHT22;114;48.260;10.988;2022-12-18T07:48:11;-4.70;66.80
262;DHT22;114;48.260;10.988;2022-12-18T07:50:37;-4.50;64.80
262;DHT22;114;48.260;10.988;2022-12-18T07:53:03;-4.60;66.70
262;DHT22;114;48.260;10.988;2022-12-18T07:55:31;-4.80;62.80
262;DHT22;114;48.260;10.988;2022-12-18T07:57:59;-4.40;64.30
262;DHT22;114;48.260;10.988;2022-12-18T08:00:25;-4.70;62.10
262;DHT22;114;48.260;10.988;2022-12-18T08:02:51;-4.20;62.40
262;DHT22;114;48.260;10.988;2022-12-18T08:05:20;-4.20;60.30
262;DHT22;114;48.260;10.988;2022-12-18T08:07:46;-4.80;59.50
262;DHT22;114;48.260;10.988;2022-12-18T08:10:12;-4.30;58.50
262;DHT22;114;48.260;10.988;2022-12-18T08:12:38;-4.20;57.90
262;DHT22;114;48.260;10.988;2022-12-18T08:15:04;-4.40;56.60
262;DHT22;114;48.260;10.988;2022-12-18T08:17:30;-4.20;57.10
262;DHT22;114;48.260;10.988;2022-12-18T08:19:56;-4.00;57.50
262;DHT22;114;48.260;10.988;2022-12-18T08:22:22;-3.90;53.60
262;DHT22;114;48.260;10.988;2022-12-18T08:24:48;-4.60;55.00
262;DHT22;114;48.260;10.988;2022-12-18T08:27:13;-4.00;53.80
262;DHT22;114;48.260;10.988;2022-12-18T08:29:39;-3.90;52.40
262;DHT22;114;48.260;10.988;2022-12-18T08:32:05;-4.10;49.30
262;DHT22;114;48.260;10.988;2022-12-18T08:34:32;-4.10;51.20
262;DHT22;114;48.260;10.988;2022-12-18T08:36:57;-4.00;51.40
262;DHT22;114;48.260;10.988;2022-12-18T08:39:23;-4.20;51.80
262;DHT22;114;48.260;10.988;2022-12-18T08:41:49;-4.10;50.70
262;DHT22;114;48.260;10.988;2022-12-18T08:44:33;-4.30;50.30
262;DHT22;114;48.260;10.988;2022-12-18T08:47:06;-3.80;50.60
262;DHT22;114;48.260;10.988;2022-12-18T08:49:33;-4.00;49.90
262;DHT22;114;48.260;10.988;2022-12-18T08:51:59;-3.60;48.30
262;DHT22;114;48.260;10.988;2022-12-18T08:54:25;-3.90;46.40
262;DHT22;114;48.260;10.988;2022-12-18T08:56:51;-3.80;47.50
262;DHT22;114;48.260;10.988;2022-12-18T08:59:18;-3.80;46.70
262;DHT22;114;48.260;10.988;2022-12-18T09:01:44;-3.60;44.50
262;DHT22;114;48.260;10.988;2022-12-18T09:04:10;-4.40;42.80
262;DHT22;114;48.260;10.988;2022-12-18T09:06:36;-4.00;43.20
262;DHT22;114;48.260;10.988;2022-12-18T09:09:03;-3.80;43.80
262;DHT22;114;48.260;10.988;2022-12-18T09:11:31;-3.70;43.40
262;DHT22;114;48.260;10.988;2022-12-18T09:13:58;-3.60;44.10
262;DHT22;114;48.260;10.988;2022-12-18T09:16:26;-3.90;43.40
262;DHT22;114;48.260;10.988;2022-12-18T09:18:55;-3.70;44.50
262;DHT22;114;48.260;10.988;2022-12-18T09:21:26;-3.50;43.90
262;DHT22;114;48.260;10.988;2022-12-18T09:23:53;-3.80;42.20
262;DHT22;114;48.260;10.988;2022-12-18T09:26:21;-4.10;41.20
262;DHT22;114;48.260;10.988;2022-12-18T09:28:50;-3.50;42.00
262;DHT22;114;48.260;10.988;2022-12-18T09:31:17;-3.70;41.40
262;DHT22;114;48.260;10.988;2022-12-18T09:33:43;-4.20;40.00
262;DHT22;114;48.260;10.988;2022-12-18T09:36:13;-3.50;39.60
262;DHT22;114;48.260;10.988;2022-12-18T09:38:39;-3.40;35.90
262;DHT22;114;48.260;10.988;2022-12-18T09:43:50;-3.50;35.90
262;DHT22;114;48.260;10.988;2022-12-18T09:46:26;-3.40;35.90
262;DHT22;114;48.260;10.988;2022-12-18T09:48:56;-3.60;34.10
262;DHT22;114;48.260;10.988;2022-12-18T09:54:17;-2.90;32.60
262;DHT22;114;48.260;10.988;2022-12-18T09:56:44;-3.00;31.50
262;DHT22;114;48.260;10.988;2022-12-18T09:59:24;-3.10;29.00
262;DHT22;114;48.260;10.988;2022-12-18T10:01:51;-3.30;28.60
262;DHT22;114;48.260;10.988;2022-12-18T10:04:17;-3.20;28.90
262;DHT22;114;48.260;10.988;2022-12-18T10:07:08;-3.50;31.10
262;DHT22;114;48.260;10.988;2022-12-18T10:09:46;-3.60;33.00
262;DHT22;114;48.260;10.988;2022-12-18T10:20:17;-3.60;36.20
262;DHT22;114;48.260;10.988;2022-12-18T10:23:04;-3.50;33.80
262;DHT22;114;48.260;10.988;2022-12-18T10:28:23;-3.50;35.90
262;DHT22;114;48.260;10.988;2022-12-18T10:30:50;-3.60;35.40
262;DHT22;114;48.260;10.988;2022-12-18T10:33:21;-3.10;32.90
262;DHT22;114;48.260;10.988;2022-12-18T10:35:50;-3.30;31.60
262;DHT22;114;48.260;10.988;2022-12-18T10:41:05;-3.10;32.90
262;DHT22;114;48.260;10.988;2022-12-18T10:43:36;-3.30;30.30
262;DHT22;114;48.260;10.988;2022-12-18T10:46:14;-2.90;31.00
262;DHT22;114;48.260;10.988;2022-12-18T10:51:31;-2.90;29.90
262;DHT22;114;48.260;10.988;2022-12-18T10:54:13;-3.00;28.90
262;DHT22;114;48.260;10.988;2022-12-18T10:56:40;-2.90;28.80
262;DHT22;114;48.260;10.988;2022-12-18T10:59:08;-2.70;27.90
262;DHT22;114;48.260;10.988;2022-12-18T11:02:07;-2.60;26.80
262;DHT22;114;48.260;10.988;2022-12-18T11:04:51;-2.50;25.30
262;DHT22;114;48.260;10.988;2022-12-18T11:07:17;-2.50;22.90
262;DHT22;114;48.260;10.988;2022-12-18T11:09:43;-2.40;22.60
262;DHT22;114;48.260;10.988;2022-12-18T11:12:19;-2.40;23.50
262;DHT22;114;48.260;10.988;2022-12-18T11:14:53;-2.30;23.30
262;DHT22;114;48.260;10.988;2022-12-18T11:17:31;-2.30;22.80
262;DHT22;114;48.260;10.988;2022-12-18T11:20:31;-2.40;22.80
262;DHT22;114;48.260;10.988;2022-12-18T11:23:05;-2.40;24.40
262;DHT22;114;48.260;10.988;2022-12-18T11:25:36;-2.40;21.40
262;DHT22;114;48.260;10.988;2022-12-18T11:30:48;-2.30;19.50
262;DHT22;114;48.260;10.988;2022-12-18T11:33:23;-2.20;20.30
262;DHT22;114;48.260;10.988;2022-12-18T11:35:55;-2.10;18.90
262;DHT22;114;48.260;10.988;2022-12-18T11:38:49;-2.20;18.40
262;DHT22;114;48.260;10.988;2022-12-18T11:41:45;-2.20;19.00
262;DHT22;114;48.260;10.988;2022-12-18T11:44:54;-2.00;20.40
262;DHT22;114;48.260;10.988;2022-12-18T11:49:51;-2.00;17.70
262;DHT22;114;48.260;10.988;2022-12-18T11:52:28;-2.20;18.60
262;DHT22;114;48.260;10.988;2022-12-18T11:55:01;-2.20;19.70
262;DHT22;114;48.260;10.988;2022-12-18T11:57:47;-2.10;19.90
262;DHT22;114;48.260;10.988;2022-12-18T12:00:20;-2.20;20.30
262;DHT22;114;48.260;10.988;2022-12-18T12:05:50;-2.30;18.20
262;DHT22;114;48.260;10.988;2022-12-18T12:08:39;-2.40;20.20
262;DHT22;114;48.260;10.988;2022-12-18T12:11:21;-2.40;19.60
262;DHT22;114;48.260;10.988;2022-12-18T12:17:12;-2.10;21.30
262;DHT22;114;48.260;10.988;2022-12-18T12:34:25;-2.40;20.10
262;DHT22;114;48.260;10.988;2022-12-18T12:37:30;-2.20;20.40
262;DHT22;114;48.260;10.988;2022-12-18T12:40:02;-2.30;21.40
262;DHT22;114;48.260;10.988;2022-12-18T12:42:38;-2.30;20.90
262;DHT22;114;48.260;10.988;2022-12-18T12:45:53;-2.20;20.30
262;DHT22;114;48.260;10.988;2022-12-18T12:50:48;-2.20;20.30
262;DHT22;114;48.260;10.988;2022-12-18T12:53:24;-2.70;18.90
262;DHT22;114;48.260;10.988;2022-12-18T12:55:52;-2.30;20.20
262;DHT22;114;48.260;10.988;2022-12-18T13:01:12;-2.40;19.60
262;DHT22;114;48.260;10.988;2022-12-18T13:07:05;-2.40;22.10
262;DHT22;114;48.260;10.988;2022-12-18T13:09:34;-2.40;23.10
262;DHT22;114;48.260;10.988;2022-12-18T13:12:20;-2.40;20.90
262;DHT22;114;48.260;10.988;2022-12-18T13:15:21;-2.40;21.70
262;DHT22;114;48.260;10.988;2022-12-18T13:17:47;-2.40;21.40
262;DHT22;114;48.260;10.988;2022-12-18T13:20:14;-2.60;21.60
262;DHT22;114;48.260;10.988;2022-12-18T13:22:48;-2.70;22.70
262;DHT22;114;48.260;10.988;2022-12-18T13:28:14;-3.40;24.70
262;DHT22;114;48.260;10.988;2022-12-18T13:38:34;-3.10;30.80
262;DHT22;114;48.260;10.988;2022-12-18T13:43:33;-3.30;31.20
262;DHT22;114;48.260;10.988;2022-12-18T13:46:30;-4.00;33.00
262;DHT22;114;48.260;10.988;2022-12-18T13:51:49;-3.50;35.10
262;DHT22;114;48.260;10.988;2022-12-18T13:54:27;-3.50;34.30
262;DHT22;114;48.260;10.988;2022-12-18T13:56:54;-3.60;38.20
262;DHT22;114;48.260;10.988;2022-12-18T13:59:25;-3.50;38.20
262;DHT22;114;48.260;10.988;2022-12-18T14:04:22;-3.50;35.90
262;DHT22;114;48.260;10.988;2022-12-18T14:06:51;-3.50;35.90
262;DHT22;114;48.260;10.988;2022-12-18T14:09:24;-3.40;37.20
262;DHT22;114;48.260;10.988;2022-12-18T14:11:51;-3.60;38.20
262;DHT22;114;48.260;10.988;2022-12-18T14:14:18;-4.10;37.00
262;DHT22;114;48.260;10.988;2022-12-18T14:16:46;-3.70;37.00
262;DHT22;114;48.260;10.988;2022-12-18T14:19:15;-3.80;40.30
262;DHT22;114;48.260;10.988;2022-12-18T14:21:47;-4.00;39.00
262;DHT22;114;48.260;10.988;2022-12-18T14:24:18;-3.90;40.60
262;DHT22;114;48.260;10.988;2022-12-18T14:26:45;-4.00;42.30
262;DHT22;114;48.260;10.988;2022-12-18T14:32:11;-4.00;43.80
262;DHT22;114;48.260;10.988;2022-12-18T14:34:38;-3.90;44.00
262;DHT22;114;48.260;10.988;2022-12-18T14:37:04;-3.80;43.50
262;DHT22;114;48.260;10.988;2022-12-18T14:39:29;-4.00;43.80
262;DHT22;114;48.260;10.988;2022-12-18T14:41:55;-4.50;43.70
262;DHT22;114;48.260;10.988;2022-12-18T14:44:21;-4.20;44.70
262;DHT22;114;48.260;10.988;2022-12-18T14:46:48;-4.20;43.90
262;DHT22;114;48.260;10.988;2022-12-18T14:49:27;-4.20;44.70
262;DHT22;114;48.260;10.988;2022-12-18T14:54:23;-4.20;44.00
262;DHT22;114;48.260;10.988;2022-12-18T14:59:44;-4.10;44.70
262;DHT22;114;48.260;10.988;2022-12-18T15:04:45;-4.40;45.30
262;DHT22;114;48.260;10.988;2022-12-18T15:07:15;-4.40;45.50
262;DHT22;114;48.260;10.988;2022-12-18T15:10:13;-4.50;47.10
262;DHT22;114;48.260;10.988;2022-12-18T15:20:31;-4.30;51.90
262;DHT22;114;48.260;10.988;2022-12-18T15:22:58;-4.50;53.00
262;DHT22;114;48.260;10.988;2022-12-18T15:25:34;-4.50;53.00
262;DHT22;114;48.260;10.988;2022-12-18T15:28:02;-4.90;53.50
262;DHT22;114;48.260;10.988;2022-12-18T15:30:28;-4.60;55.30
262;DHT22;114;48.260;10.988;2022-12-18T15:33:25;-4.30;57.10
262;DHT22;114;48.260;10.988;2022-12-18T15:36:08;-5.00;56.60
262;DHT22;114;48.260;10.988;2022-12-18T15:38:34;-4.40;58.00
262;DHT22;114;48.260;10.988;2022-12-18T15:41:01;-4.40;56.80
262;DHT22;114;48.260;10.988;2022-12-18T15:43:30;-4.30;57.00
262;DHT22;114;48.260;10.988;2022-12-18T15:46:04;-4.30;56.60
262;DHT22;114;48.260;10.988;2022-12-18T15:48:33;-4.40;55.60
262;DHT22;114;48.260;10.988;2022-12-18T15:51:00;-4.50;55.60
262;DHT22;114;48.260;10.988;2022-12-18T15:53:30;-4.30;57.70
262;DHT22;114;48.260;10.988;2022-12-18T15:55:57;-4.50;58.00
262;DHT22;114;48.260;10.988;2022-12-18T15:58:42;-4.30;59.10
262;DHT22;114;48.260;10.988;2022-12-18T16:01:09;-4.40;58.40
262;DHT22;114;48.260;10.988;2022-12-18T16:03:36;-4.30;58.10
262;DHT22;114;48.260;10.988;2022-12-18T16:06:02;-4.40;58.00
262;DHT22;114;48.260;10.988;2022-12-18T16:08:30;-4.20;57.50
262;DHT22;114;48.260;10.988;2022-12-18T16:10:57;-4.40;56.40
262;DHT22;114;48.260;10.988;2022-12-18T16:13:23;-4.50;57.20
262;DHT22;114;48.260;10.988;2022-12-18T16:15:49;-4.40;58.00
262;DHT22;114;48.260;10.988;2022-12-18T16:18:15;-4.50;59.00
262;DHT22;114;48.260;10.988;2022-12-18T16:20:41;-5.00;58.40
262;DHT22;114;48.260;10.988;2022-12-18T16:23:07;-4.30;60.50
262;DHT22;114;48.260;10.988;2022-12-18T16:25:33;-4.40;60.30
262;DHT22;114;48.260;10.988;2022-12-18T16:27:58;-4.40;60.10
262;DHT22;114;48.260;10.988;2022-12-18T16:30:29;-4.30;60.70
262;DHT22;114;48.260;10.988;2022-12-18T16:32:56;-4.20;60.30
262;DHT22;114;48.260;10.988;2022-12-18T16:35:25;-4.40;60.40
262;DHT22;114;48.260;10.988;2022-12-18T16:37:51;-4.20;62.10
262;DHT22;114;48.260;10.988;2022-12-18T16:40:17;-4.50;58.90
262;DHT22;114;48.260;10.988;2022-12-18T16:42:44;-4.00;58.30
262;DHT22;114;48.260;10.988;2022-12-18T16:45:13;-4.90;57.30
262;DHT22;114;48.260;10.988;2022-12-18T16:47:39;-4.90;57.60
262;DHT22;114;48.260;10.988;2022-12-18T16:50:06;-4.40;58.00
262;DHT22;114;48.260;10.988;2022-12-18T16:52:33;-4.60;59.90
262;DHT22;114;48.260;10.988;2022-12-18T16:54:58;-4.90;60.40
262;DHT22;114;48.260;10.988;2022-12-18T16:57:24;-5.00;61.50
262;DHT22;114;48.260;10.988;2022-12-18T16:59:50;-4.80;61.50
262;DHT22;114;48.260;10.988;2022-12-18T17:02:22;-4.50;60.20
262;DHT22;114;48.260;10.988;2022-12-18T17:04:48;-4.90;61.50
262;DHT22;114;48.260;10.988;2022-12-18T17:07:14;-4.60;61.70
262;DHT22;114;48.260;10.988;2022-12-18T17:09:41;-5.00;61.10
262;DHT22;114;48.260;10.988;2022-12-18T17:12:07;-4.90;61.80
262;DHT22;114;48.260;10.988;2022-12-18T17:14:34;-4.60;61.80
262;DHT22;114;48.260;10.988;2022-12-18T17:17:00;-4.70;60.70
262;DHT22;114;48.260;10.988;2022-12-18T17:19:26;-4.40;61.70
262;DHT22;114;48.260;10.988;2022-12-18T17:21:53;-4.70;62.00
262;DHT22;114;48.260;10.988;2022-12-18T17:24:19;-5.00;62.80
262;DHT22;114;48.260;10.988;2022-12-18T17:26:47;-4.70;63.70
262;DHT22;114;48.260;10.988;2022-12-18T17:29:14;-4.90;63.20
262;DHT22;114;48.260;10.988;2022-12-18T17:31:40;-5.00;62.30
262;DHT22;114;48.260;10.988;2022-12-18T17:34:08;-5.20;62.60
262;DHT22;114;48.260;10.988;2022-12-18T17:36:34;-4.70;63.30
262;DHT22;114;48.260;10.988;2022-12-18T17:39:01;-4.70;62.90
262;DHT22;114;48.260;10.988;2022-12-18T17:41:27;-5.30;62.10
262;DHT22;114;48.260;10.988;2022-12-18T17:43:59;-4.80;62.80
262;DHT22;114;48.260;10.988;2022-12-18T17:46:27;-5.10;62.40
262;DHT22;114;48.260;10.988;2022-12-18T17:48:57;-5.10;63.10
262;DHT22;114;48.260;10.988;2022-12-18T17:51:23;-4.80;63.10
262;DHT22;114;48.260;10.988;2022-12-18T17:53:49;-5.00;62.70
262;DHT22;114;48.260;10.988;2022-12-18T17:56:17;-4.70;62.40
262;DHT22;114;48.260;10.988;2022-12-18T17:58:44;-5.30;63.50
262;DHT22;114;48.260;10.988;2022-12-18T18:01:18;-5.20;63.50
262;DHT22;114;48.260;10.988;2022-12-18T18:03:45;-4.80;64.40
262;DHT22;114;48.260;10.988;2022-12-18T18:06:11;-4.90;66.60
262;DHT22;114;48.260;10.988;2022-12-18T18:08:37;-4.70;67.00
262;DHT22;114;48.260;10.988;2022-12-18T18:11:05;-5.10;65.60
262;DHT22;114;48.260;10.988;2022-12-18T18:13:49;-4.80;66.00
262;DHT22;114;48.260;10.988;2022-12-18T18:16:35;-4.80;65.30
262;DHT22;114;48.260;10.988;2022-12-18T18:19:05;-4.80;65.10
262;DHT22;114;48.260;10.988;2022-12-18T18:21:31;-5.10;64.60
262;DHT22;114;48.260;10.988;2022-12-18T18:24:01;-5.20;64.60
262;DHT22;114;48.260;10.988;2022-12-18T18:26:29;-4.90;64.70
262;DHT22;114;48.260;10.988;2022-12-18T18:28:59;-5.10;64.80
262;DHT22;114;48.260;10.988;2022-12-18T18:31:27;-5.00;65.50
262;DHT22;114;48.260;10.988;2022-12-18T18:33:53;-4.90;67.20
262;DHT22;114;48.260;10.988;2022-12-18T18:36:19;-4.90;66.60
262;DHT22;114;48.260;10.988;2022-12-18T18:38:45;-4.90;67.70
262;DHT22;114;48.260;10.988;2022-12-18T18:41:11;-5.20;66.70